sensor_id;sensor_type;location;lat;lon;timestamp;pressure;altitude;pressure_sealevel;temperature;humidity
10606;BME280;5350;42.698;23.148;2023-04-25T00:01:20;92841.06;;;10.30;100.00
10606;BME280;5350;42.698;23.148;2023-04-25T00:03:47;92842.09;;;10.21;100.00
10606;BME280;5350;42.698;23.148;2023-04-25T00:06:14;92840.38;;;10.16;100.00
10606;BME280;5350;42.698;23.148;2023-04-25T00:08:41;92839.44;;;10.12;100.00
10606;BME280;5350;42.698;23.148;2023-04-25T00:11:08;92838.63;;;10.03;100.00
10606;BME280;5350;42.698;23.148;2023-04-25T00:13:36;92845.28;;;10.09;100.00
10606;BME280;5350;42.698;23.148;2023-04-25T00:16:03;92853.34;;;10.13;100.00
10606;BME280;5350;42.698;23.148;2023-04-25T00:18:30;92859.97;;;10.10;100.00
10606;BME280;5350;42.698;23.148;2023-04-25T00:20:58;92872.06;;;10.11;100.00
10606;BME280;5350;42.698;23.148;2023-04-25T00:23:25;92870.06;;;10.17;100.00
10606;BME280;5350;42.698;23.148;2023-04-25T00:25:52;92850.72;;;10.13;100.00
10606;BME280;5350;42.698;23.148;2023-04-25T00:28:19;92866.06;;;10.19;100.00
10606;BME280;5350;42.698;23.148;2023-04-25T00:30:47;92864.72;;;10.30;100.00
10606;BME280;5350;42.698;23.148;2023-04-25T00:33:13;92859.13;;;10.32;100.00
10606;BME280;5350;42.698;23.148;2023-04-25T00:35:40;92859.91;;;10.32;100.00
10606;BME280;5350;42.698;23.148;2023-04-25T00:38:07;92861.16;;;10.43;100.00
10606;BME280;5350;42.698;23.148;2023-04-25T00:40:34;92857.75;;;10.43;100.00
10606;BME280;5350;42.698;23.148;2023-04-25T00:43:01;92860.88;;;10.45;100.00
10606;BME280;5350;42.698;23.148;2023-04-25T00:45:28;92861.50;;;10.51;100.00
10606;BME280;5350;42.698;23.148;2023-04-25T00:47:57;92868.16;;;10.57;100.00
10606;BME280;5350;42.698;23.148;2023-04-25T00:50:23;92866.13;;;10.54;100.00
10606;BME280;5350;42.698;23.148;2023-04-25T00:52:51;92852.06;;;10.50;100.00
10606;BME280;5350;42.698;23.148;2023-04-25T00:55:18;92853.00;;;10.54;100.00
10606;BME280;5350;42.698;23.148;2023-04-25T00:57:45;92849.13;;;10.51;100.00
10606;BME280;5350;42.698;23.148;2023-04-25T01:00:13;92853.00;;;10.54;100.00
10606;BME280;5350;42.698;23.148;2023-04-25T01:02:40;92848.34;;;10.51;100.00
10606;BME280;5350;42.698;23.148;2023-04-25T01:05:09;92846.16;;;10.35;100.00
10606;BME280;5350;42.698;23.148;2023-04-25T01:07:37;92834.09;;;10.34;100.00
10606;BME280;5350;42.698;23.148;2023-04-25T01:10:05;92837.50;;;10.43;100.00
10606;BME280;5350;42.698;23.148;2023-04-25T01:12:33;92838.41;;;10.30;100.00
10606;BME280;5350;42.698;23.148;2023-04-25T01:15:00;92832.88;;;10.40;100.00
10606;BME280;5350;42.698;23.148;2023-04-25T01:17:27;92796.63;;;10.20;100.00
10606;BME280;5350;42.698;23.148;2023-04-25T01:19:54;92838.28;;;10.44;100.00
10606;BME280;5350;42.698;23.148;2023-04-25T01:22:22;92835.34;;;10.45;100.00
10606;BME280;5350;42.698;23.148;2023-04-25T01:24:50;92837.50;;;10.43;100.00
10606;BME280;5350;42.698;23.148;2023-04-25T01:27:17;92829.78;;;10.38;100.00
10606;BME280;5350;42.698;23.148;2023-04-25T01:29:46;92821.91;;;10.38;100.00
10606;BME280;5350;42.698;23.148;2023-04-25T01:32:13;92832.53;;;10.33;100.00
10606;BME280;5350;42.698;23.148;2023-04-25T01:34:40;92827.16;;;10.38;100.00
10606;BME280;5350;42.698;23.148;2023-04-25T01:37:07;92828.50;;;10.27;100.00
10606;BME280;5350;42.698;23.148;2023-04-25T01:39:35;92832.97;;;10.27;100.00
10606;BME280;5350;42.698;23.148;2023-04-25T01:42:02;92826.81;;;10.31;100.00
10606;BME280;5350;42.698;23.148;2023-04-25T01:44:28;92810.56;;;10.29;100.00
10606;BME280;5350;42.698;23.148;2023-04-25T01:46:55;92818.59;;;10.24;100.00
10606;BME280;5350;42.698;23.148;2023-04-25T01:49:22;92814.91;;;10.25;100.00
10606;BME280;5350;42.698;23.148;2023-04-25T01:51:49;92820.91;;;10.17;100.00
10606;BME280;5350;42.698;23.148;2023-04-25T01:54:15;92794.31;;;10.19;100.00
10606;BME280;5350;42.698;23.148;2023-04-25T01:56:49;92807.00;;;10.25;100.00
10606;BME280;5350;42.698;23.148;2023-04-25T01:59:19;92799.13;;;10.25;100.00
10606;BME280;5350;42.698;23.148;2023-04-25T02:01:47;92802.22;;;10.27;100.00
10606;BME280;5350;42.698;23.148;2023-04-25T02:04:13;92807.78;;;10.26;100.00
10606;BME280;5350;42.698;23.148;2023-04-25T02:06:40;92801.91;;;10.29;100.00
10606;BME280;5350;42.698;23.148;2023-04-25T02:09:07;92799.13;;;10.25;100.00
10606;BME280;5350;42.698;23.148;2023-04-25T02:11:33;92789.41;;;10.26;100.00
10606;BME280;5350;42.698;23.148;2023-04-25T02:14:02;92775.94;;;10.27;100.00
10606;BME280;5350;42.698;23.148;2023-04-25T02:16:28;92789.41;;;10.34;100.00
10606;BME280;5350;42.698;23.148;2023-04-25T02:18:55;92789.41;;;10.34;100.00
10606;BME280;5350;42.698;23.148;2023-04-25T02:21:22;92784.28;;;10.29;100.00
10606;BME280;5350;42.698;23.148;2023-04-25T02:23:49;92785.53;;;10.32;100.00
10606;BME280;5350;42.698;23.148;2023-04-25T02:26:17;92781.06;;;10.32;100.00
10606;BME280;5350;42.698;23.148;2023-04-25T02:28:44;92764.66;;;10.35;100.00
10606;BME280;5350;42.698;23.148;2023-04-25T02:31:12;92761.88;;;10.32;100.00
10606;BME280;5350;42.698;23.148;2023-04-25T02:33:38;92763.88;;;10.35;100.00
10606;BME280;5350;42.698;23.148;2023-04-25T02:36:05;92753.53;;;10.30;100.00
10606;BME280;5350;42.698;23.148;2023-04-25T02:38:32;92751.06;;;10.33;100.00
10606;BME280;5350;42.698;23.148;2023-04-25T02:40:59;92744.25;;;10.24;100.00
10606;BME280;5350;42.698;23.148;2023-04-25T02:43:26;92751.81;;;10.25;100.00
10606;BME280;5350;42.698;23.148;2023-04-25T02:45:53;92768.22;;;10.31;100.00
10606;BME280;5350;42.698;23.148;2023-04-25T02:48:21;92762.66;;;10.32;100.00
10606;BME280;5350;42.698;23.148;2023-04-25T02:50:48;92760.03;;;10.32;100.00
10606;BME280;5350;42.698;23.148;2023-04-25T02:53:14;92750.91;;;10.30;100.00
10606;BME280;5350;42.698;23.148;2023-04-25T02:55:41;92752.75;;;10.29;100.00
10606;BME280;5350;42.698;23.148;2023-04-25T02:58:08;92744.28;;;10.32;100.00
10606;BME280;5350;42.698;23.148;2023-04-25T03:00:35;92741.47;;;10.37;100.00
10606;BME280;5350;42.698;23.148;2023-04-25T03:03:02;92755.25;;;10.34;100.00
10606;BME280;5350;42.698;23.148;2023-04-25T03:05:30;92746.25;;;10.35;100.00
10606;BME280;5350;42.698;23.148;2023-04-25T03:07:57;92754.47;;;10.34;100.00
10606;BME280;5350;42.698;23.148;2023-04-25T03:10:24;92754.63;;;10.37;100.00
10606;BME280;5350;42.698;23.148;2023-04-25T03:12:50;92749.34;;;10.37;100.00
10606;BME280;5350;42.698;23.148;2023-04-25T03:15:17;92749.22;;;10.34;100.00
10606;BME280;5350;42.698;23.148;2023-04-25T03:17:44;92744.72;;;10.34;100.00
10606;BME280;5350;42.698;23.148;2023-04-25T03:20:11;92749.69;;;10.36;100.00
10606;BME280;5350;42.698;23.148;2023-04-25T03:22:39;92702.50;;;10.22;100.00
10606;BME280;5350;42.698;23.148;2023-04-25T03:25:07;92751.22;;;10.45;100.00
10606;BME280;5350;42.698;23.148;2023-04-25T03:27:34;92758.03;;;10.47;100.00
10606;BME280;5350;42.698;23.148;2023-04-25T03:30:00;92763.28;;;10.47;100.00
10606;BME280;5350;42.698;23.148;2023-04-25T03:32:27;92747.34;;;10.52;100.00
10606;BME280;5350;42.698;23.148;2023-04-25T03:34:54;92742.72;;;10.57;100.00
10606;BME280;5350;42.698;23.148;2023-04-25T03:37:21;92731.44;;;10.65;100.00
10606;BME280;5350;42.698;23.148;2023-04-25T03:39:49;92737.63;;;10.69;100.00
10606;BME280;5350;42.698;23.148;2023-04-25T03:42:16;92738.22;;;10.66;100.00
10606;BME280;5350;42.698;23.148;2023-04-25T03:44:43;92743.03;;;10.64;100.00
10606;BME280;5350;42.698;23.148;2023-04-25T03:47:09;92754.31;;;10.65;100.00
10606;BME280;5350;42.698;23.148;2023-04-25T03:49:36;92748.13;;;10.61;100.00
10606;BME280;5350;42.698;23.148;2023-04-25T03:52:03;92743.66;;;10.61;100.00
10606;BME280;5350;42.698;23.148;2023-04-25T03:54:29;92752.47;;;10.65;100.00
10606;BME280;5350;42.698;23.148;2023-04-25T03:56:57;92763.00;;;10.74;100.00
10606;BME280;5350;42.698;23.148;2023-04-25T03:59:24;92754.94;;;10.79;100.00
10606;BME280;5350;42.698;23.148;2023-04-25T04:01:51;92760.38;;;10.82;100.00
10606;BME280;5350;42.698;23.148;2023-04-25T04:04:18;92760.38;;;10.74;100.00
10606;BME280;5350;42.698;23.148;2023-04-25T04:06:44;92750.31;;;10.76;100.00
10606;BME280;5350;42.698;23.148;2023-04-25T04:09:11;92749.84;;;10.82;100.00
10606;BME280;5350;42.698;23.148;2023-04-25T04:11:38;92747.81;;;10.88;100.00
10606;BME280;5350;42.698;23.148;2023-04-25T04:14:07;92744.13;;;10.89;100.00
10606;BME280;5350;42.698;23.148;2023-04-25T04:16:35;92751.38;;;10.92;100.00
10606;BME280;5350;42.698;23.148;2023-04-25T04:19:02;92749.19;;;10.94;100.00
10606;BME280;5350;42.698;23.148;2023-04-25T04:21:28;92754.00;;;11.00;100.00
10606;BME280;5350;42.698;23.148;2023-04-25T04:23:55;92751.38;;;10.92;100.00
10606;BME280;5350;42.698;23.148;2023-04-25T04:26:23;92745.66;;;10.90;100.00
10606;BME280;5350;42.698;23.148;2023-04-25T04:28:50;92747.81;;;10.88;100.00
10606;BME280;5350;42.698;23.148;2023-04-25T04:31:18;92733.59;;;10.89;100.00
10606;BME280;5350;42.698;23.148;2023-04-25T04:33:45;92733.88;;;10.70;100.00
10606;BME280;5350;42.698;23.148;2023-04-25T04:36:12;92754.31;;;10.82;100.00
10606;BME280;5350;42.698;23.148;2023-04-25T04:38:39;92762.69;;;10.84;100.00
10606;BME280;5350;42.698;23.148;2023-04-25T04:41:08;92752.75;;;10.81;100.00
10606;BME280;5350;42.698;23.148;2023-04-25T04:43:34;92757.28;;;10.80;100.00
10606;BME280;5350;42.698;23.148;2023-04-25T04:46:02;92751.22;;;10.80;100.00
10606;BME280;5350;42.698;23.148;2023-04-25T04:48:32;92750.78;;;10.78;100.00
10606;BME280;5350;42.698;23.148;2023-04-25T04:50:59;92757.09;;;10.85;100.00
10606;BME280;5350;42.698;23.148;2023-04-25T04:53:26;92740.41;;;10.64;100.00
10606;BME280;5350;42.698;23.148;2023-04-25T04:55:53;92744.13;;;10.80;100.00
10606;BME280;5350;42.698;23.148;2023-04-25T04:58:20;92743.34;;;10.63;100.00
10606;BME280;5350;42.698;23.148;2023-04-25T05:00:46;92756.81;;;10.70;100.00
10606;BME280;5350;42.698;23.148;2023-04-25T05:03:13;92769.78;;;10.75;100.00
10606;BME280;5350;42.698;23.148;2023-04-25T05:05:41;92762.06;;;10.70;100.00
10606;BME280;5350;42.698;23.148;2023-04-25T05:08:08;92796.41;;;10.82;100.00
10606;BME280;5350;42.698;23.148;2023-04-25T05:10:35;92795.50;;;10.95;100.00
10606;BME280;5350;42.698;23.148;2023-04-25T05:13:01;92798.88;;;11.04;100.00
10606;BME280;5350;42.698;23.148;2023-04-25T05:15:28;92799.19;;;11.19;100.00
10606;BME280;5350;42.698;23.148;2023-04-25T05:17:55;92800.22;;;11.36;100.00
10606;BME280;5350;42.698;23.148;2023-04-25T05:20:21;92804.41;;;11.45;100.00
10606;BME280;5350;42.698;23.148;2023-04-25T05:22:49;92803.91;;;11.52;100.00
10606;BME280;5350;42.698;23.148;2023-04-25T05:25:16;92801.41;;;11.64;100.00
10606;BME280;5350;42.698;23.148;2023-04-25T05:27:43;92797.84;;;11.68;100.00
10606;BME280;5350;42.698;23.148;2023-04-25T05:30:10;92787.75;;;11.70;100.00
10606;BME280;5350;42.698;23.148;2023-04-25T05:32:37;92770.63;;;11.47;100.00
10606;BME280;5350;42.698;23.148;2023-04-25T05:35:04;92787.97;;;11.48;100.00
10606;BME280;5350;42.698;23.148;2023-04-25T05:37:32;92794.78;;;11.49;100.00
10606;BME280;5350;42.698;23.148;2023-04-25T05:40:00;92787.78;;;11.62;100.00
10606;BME280;5350;42.698;23.148;2023-04-25T05:42:26;92790.41;;;11.70;100.00
10606;BME280;5350;42.698;23.148;2023-04-25T05:44:53;92785.78;;;11.67;100.00
10606;BME280;5350;42.698;23.148;2023-04-25T05:47:20;92778.03;;;11.54;100.00
10606;BME280;5350;42.698;23.148;2023-04-25T05:49:46;92777.25;;;11.62;100.00
10606;BME280;5350;42.698;23.148;2023-04-25T05:52:13;92774.16;;;11.60;100.00
10606;BME280;5350;42.698;23.148;2023-04-25T05:54:40;92790.44;;;11.53;100.00
10606;BME280;5350;42.698;23.148;2023-04-25T05:57:08;92789.78;;;11.65;100.00
10606;BME280;5350;42.698;23.148;2023-04-25T05:59:35;92778.34;;;11.69;100.00
10606;BME280;5350;42.698;23.148;2023-04-25T06:02:02;92785.59;;;11.72;100.00
10606;BME280;5350;42.698;23.148;2023-04-25T06:04:28;92781.44;;;11.71;100.00
10606;BME280;5350;42.698;23.148;2023-04-25T06:06:55;92790.53;;;11.82;100.00
10606;BME280;5350;42.698;23.148;2023-04-25T06:09:22;92781.06;;;11.81;100.00
10606;BME280;5350;42.698;23.148;2023-04-25T06:11:48;92794.69;;;11.83;100.00
10606;BME280;5350;42.698;23.148;2023-04-25T06:14:16;92790.00;;;11.97;100.00
10606;BME280;5350;42.698;23.148;2023-04-25T06:16:43;92794.72;;;12.13;100.00
10606;BME280;5350;42.698;23.148;2023-04-25T06:19:10;92797.78;;;12.23;100.00
10606;BME280;5350;42.698;23.148;2023-04-25T06:21:37;92780.16;;;12.15;100.00
10606;BME280;5350;42.698;23.148;2023-04-25T06:24:04;92796.25;;;12.22;100.00
10606;BME280;5350;42.698;23.148;2023-04-25T06:26:31;92794.66;;;12.30;100.00
10606;BME280;5350;42.698;23.148;2023-04-25T06:28:57;92804.09;;;12.31;100.00
10606;BME280;5350;42.698;23.148;2023-04-25T06:31:26;92794.47;;;12.35;100.00
10606;BME280;5350;42.698;23.148;2023-04-25T06:33:54;92808.66;;;12.51;100.00
10606;BME280;5350;42.698;23.148;2023-04-25T06:36:21;92803.91;;;12.65;100.00
10606;BME280;5350;42.698;23.148;2023-04-25T06:38:50;92799.34;;;12.74;100.00
10606;BME280;5350;42.698;23.148;2023-04-25T06:41:17;92793.84;;;12.79;100.00
10606;BME280;5350;42.698;23.148;2023-04-25T06:43:44;92797.59;;;12.78;100.00
10606;BME280;5350;42.698;23.148;2023-04-25T06:46:10;92806.31;;;12.78;100.00
10606;BME280;5350;42.698;23.148;2023-04-25T06:48:38;92795.75;;;12.99;100.00
10606;BME280;5350;42.698;23.148;2023-04-25T06:51:05;92811.13;;;12.97;100.00
10606;BME280;5350;42.698;23.148;2023-04-25T06:53:32;92811.25;;;13.01;100.00
10606;BME280;5350;42.698;23.148;2023-04-25T06:55:59;92807.00;;;13.08;100.00
10606;BME280;5350;42.698;23.148;2023-04-25T06:58:25;92800.69;;;13.21;100.00
10606;BME280;5350;42.698;23.148;2023-04-25T07:00:52;92805.53;;;13.19;100.00
10606;BME280;5350;42.698;23.148;2023-04-25T07:03:19;92808.28;;;13.23;100.00
10606;BME280;5350;42.698;23.148;2023-04-25T07:05:47;92815.56;;;13.26;100.00
10606;BME280;5350;42.698;23.148;2023-04-25T07:08:14;92821.00;;;13.41;100.00
10606;BME280;5350;42.698;23.148;2023-04-25T07:10:40;92816.66;;;13.45;100.00
10606;BME280;5350;42.698;23.148;2023-04-25T07:13:07;92815.78;;;13.53;100.00
10606;BME280;5350;42.698;23.148;2023-04-25T07:15:34;92801.94;;;13.69;100.00
10606;BME280;5350;42.698;23.148;2023-04-25T07:18:01;92805.28;;;13.90;100.00
10606;BME280;5350;42.698;23.148;2023-04-25T07:20:27;92816.19;;;13.76;100.00
10606;BME280;5350;42.698;23.148;2023-04-25T07:22:57;92803.78;;;14.01;100.00
10606;BME280;5350;42.698;23.148;2023-04-25T07:25:24;92807.53;;;14.12;100.00
10606;BME280;5350;42.698;23.148;2023-04-25T07:27:51;92805.44;;;14.17;100.00
10606;BME280;5350;42.698;23.148;2023-04-25T07:30:17;92801.28;;;14.28;100.00
10606;BME280;5350;42.698;23.148;2023-04-25T07:32:44;92808.66;;;14.47;100.00
10606;BME280;5350;42.698;23.148;2023-04-25T07:35:11;92787.72;;;14.30;100.00
10606;BME280;5350;42.698;23.148;2023-04-25T07:37:38;92799.41;;;14.53;99.66
10606;BME280;5350;42.698;23.148;2023-04-25T07:40:07;92807.75;;;14.67;97.92
10606;BME280;5350;42.698;23.148;2023-04-25T07:42:35;92805.34;;;14.62;98.91
10606;BME280;5350;42.698;23.148;2023-04-25T07:45:01;92804.34;;;14.79;100.00
10606;BME280;5350;42.698;23.148;2023-04-25T07:47:29;92803.34;;;14.71;96.81
10606;BME280;5350;42.698;23.148;2023-04-25T07:49:56;92798.22;;;14.90;96.76
10606;BME280;5350;42.698;23.148;2023-04-25T07:52:23;92809.44;;;15.11;95.60
10606;BME280;5350;42.698;23.148;2023-04-25T07:54:50;92810.34;;;15.03;88.38
10606;BME280;5350;42.698;23.148;2023-04-25T07:57:18;92806.78;;;15.11;92.05
10606;BME280;5350;42.698;23.148;2023-04-25T07:59:45;92797.19;;;15.47;94.50
10606;BME280;5350;42.698;23.148;2023-04-25T08:02:12;92798.97;;;15.43;92.89
10606;BME280;5350;42.698;23.148;2023-04-25T08:04:38;92800.56;;;15.19;94.57
10606;BME280;5350;42.698;23.148;2023-04-25T08:07:05;92811.25;;;15.23;95.42
10606;BME280;5350;42.698;23.148;2023-04-25T08:09:32;92807.25;;;15.41;97.93
10606;BME280;5350;42.698;23.148;2023-04-25T08:12:01;92813.38;;;15.57;79.73
10606;BME280;5350;42.698;23.148;2023-04-25T08:14:30;92828.06;;;15.55;79.69
10606;BME280;5350;42.698;23.148;2023-04-25T08:17:01;92816.59;;;15.51;78.67
10606;BME280;5350;42.698;23.148;2023-04-25T08:19:28;92818.16;;;15.52;84.95
10606;BME280;5350;42.698;23.148;2023-04-25T08:21:55;92811.41;;;15.42;83.25
10606;BME280;5350;42.698;23.148;2023-04-25T08:24:22;92823.31;;;15.20;79.32
10606;BME280;5350;42.698;23.148;2023-04-25T08:26:48;92814.91;;;15.31;84.40
10606;BME280;5350;42.698;23.148;2023-04-25T08:29:15;92809.53;;;15.55;85.97
10606;BME280;5350;42.698;23.148;2023-04-25T08:31:43;92805.44;;;15.73;83.35
10606;BME280;5350;42.698;23.148;2023-04-25T08:34:10;92795.03;;;15.80;86.28
10606;BME280;5350;42.698;23.148;2023-04-25T08:36:38;92803.53;;;16.01;73.77
10606;BME280;5350;42.698;23.148;2023-04-25T08:39:05;92804.28;;;16.17;71.82
10606;BME280;5350;42.698;23.148;2023-04-25T08:41:32;92792.38;;;16.42;69.26
10606;BME280;5350;42.698;23.148;2023-04-25T08:44:00;92790.13;;;16.75;70.19
10606;BME280;5350;42.698;23.148;2023-04-25T08:46:27;92792.28;;;17.05;70.29
10606;BME280;5350;42.698;23.148;2023-04-25T08:49:00;92804.53;;;17.28;65.04
10606;BME280;5350;42.698;23.148;2023-04-25T08:51:31;92814.25;;;17.21;66.60
10606;BME280;5350;42.698;23.148;2023-04-25T08:54:08;92813.31;;;17.13;67.92
10606;BME280;5350;42.698;23.148;2023-04-25T08:56:36;92801.22;;;16.97;62.11
10606;BME280;5350;42.698;23.148;2023-04-25T08:59:02;92804.28;;;16.99;64.28
10606;BME280;5350;42.698;23.148;2023-04-25T09:01:29;92800.72;;;16.91;65.07
10606;BME280;5350;42.698;23.148;2023-04-25T09:03:58;92793.91;;;16.74;63.53
10606;BME280;5350;42.698;23.148;2023-04-25T09:06:25;92800.78;;;16.60;63.79
10606;BME280;5350;42.698;23.148;2023-04-25T09:08:53;92798.31;;;16.51;67.40
10606;BME280;5350;42.698;23.148;2023-04-25T09:11:19;92798.56;;;16.31;64.73
10606;BME280;5350;42.698;23.148;2023-04-25T09:13:46;92797.53;;;16.35;65.55
10606;BME280;5350;42.698;23.148;2023-04-25T09:16:13;92792.38;;;16.42;62.65
10606;BME280;5350;42.698;23.148;2023-04-25T09:18:42;92781.09;;;16.61;65.22
10606;BME280;5350;42.698;23.148;2023-04-25T09:21:11;92788.53;;;16.40;56.67
10606;BME280;5350;42.698;23.148;2023-04-25T09:23:43;92790.56;;;16.46;59.05
10606;BME280;5350;42.698;23.148;2023-04-25T09:26:14;92802.91;;;16.54;54.22
10606;BME280;5350;42.698;23.148;2023-04-25T09:28:40;92795.81;;;16.43;52.15
10606;BME280;5350;42.698;23.148;2023-04-25T09:31:09;92789.03;;;16.61;55.11
10606;BME280;5350;42.698;23.148;2023-04-25T09:33:36;92793.94;;;16.59;53.60
10606;BME280;5350;42.698;23.148;2023-04-25T09:36:05;92786.09;;;16.82;53.02
10606;BME280;5350;42.698;23.148;2023-04-25T09:38:40;92777.56;;;16.72;51.82
10606;BME280;5350;42.698;23.148;2023-04-25T09:41:08;92785.66;;;16.79;52.53
10606;BME280;5350;42.698;23.148;2023-04-25T09:43:35;92774.38;;;17.02;50.45
10606;BME280;5350;42.698;23.148;2023-04-25T09:46:02;92767.81;;;17.15;51.78
10606;BME280;5350;42.698;23.148;2023-04-25T09:48:29;92772.84;;;17.20;50.27
10606;BME280;5350;42.698;23.148;2023-04-25T09:51:07;92778.31;;;17.08;48.62
10606;BME280;5350;42.698;23.148;2023-04-25T09:53:36;92772.97;;;16.89;50.44
10606;BME280;5350;42.698;23.148;2023-04-25T09:56:04;92770.78;;;16.75;50.37
10606;BME280;5350;42.698;23.148;2023-04-25T09:58:32;92766.00;;;16.65;51.20
10606;BME280;5350;42.698;23.148;2023-04-25T10:01:00;92771.78;;;16.51;52.48
10606;BME280;5350;42.698;23.148;2023-04-25T10:03:29;92755.16;;;16.23;54.05
10606;BME280;5350;42.698;23.148;2023-04-25T10:05:57;92781.44;;;16.59;53.54
10606;BME280;5350;42.698;23.148;2023-04-25T10:08:26;92771.41;;;16.68;55.42
10606;BME280;5350;42.698;23.148;2023-04-25T10:10:59;92776.00;;;17.06;56.01
10606;BME280;5350;42.698;23.148;2023-04-25T10:13:27;92779.41;;;17.07;53.56
10606;BME280;5350;42.698;23.148;2023-04-25T10:15:55;92777.31;;;16.97;54.12
10606;BME280;5350;42.698;23.148;2023-04-25T10:18:23;92783.06;;;16.64;48.87
10606;BME280;5350;42.698;23.148;2023-04-25T10:20:51;92786.94;;;16.35;51.35
10606;BME280;5350;42.698;23.148;2023-04-25T10:23:17;92793.09;;;16.24;51.45
10606;BME280;5350;42.698;23.148;2023-04-25T10:25:45;92775.78;;;15.98;52.11
10606;BME280;5350;42.698;23.148;2023-04-25T10:28:13;92775.38;;;15.81;54.73
10606;BME280;5350;42.698;23.148;2023-04-25T10:30:56;92768.00;;;15.90;55.96
10606;BME280;5350;42.698;23.148;2023-04-25T10:33:30;92772.97;;;15.76;56.91
10606;BME280;5350;42.698;23.148;2023-04-25T10:35:58;92764.06;;;15.84;58.52
10606;BME280;5350;42.698;23.148;2023-04-25T10:38:34;92762.69;;;15.90;61.27
10606;BME280;5350;42.698;23.148;2023-04-25T10:41:03;92757.91;;;16.27;57.49
10606;BME280;5350;42.698;23.148;2023-04-25T10:43:36;92752.66;;;16.61;63.05
10606;BME280;5350;42.698;23.148;2023-04-25T10:46:13;92755.94;;;16.90;54.14
10606;BME280;5350;42.698;23.148;2023-04-25T10:48:45;92743.19;;;16.99;55.12
10606;BME280;5350;42.698;23.148;2023-04-25T10:51:16;92715.22;;;17.05;52.41
10606;BME280;5350;42.698;23.148;2023-04-25T10:53:44;92737.25;;;17.43;52.78
10606;BME280;5350;42.698;23.148;2023-04-25T10:56:11;92754.81;;;17.48;52.04
10606;BME280;5350;42.698;23.148;2023-04-25T10:58:45;92745.97;;;17.63;50.75
10606;BME280;5350;42.698;23.148;2023-04-25T11:01:12;92744.56;;;17.69;49.56
10606;BME280;5350;42.698;23.148;2023-04-25T11:03:43;92741.63;;;17.74;49.07
10606;BME280;5350;42.698;23.148;2023-04-25T11:06:20;92742.59;;;17.85;53.18
10606;BME280;5350;42.698;23.148;2023-04-25T11:08:49;92736.88;;;17.64;53.57
10606;BME280;5350;42.698;23.148;2023-04-25T11:11:16;92743.47;;;17.51;55.89
10606;BME280;5350;42.698;23.148;2023-04-25T11:13:47;92739.78;;;17.17;61.96
10606;BME280;5350;42.698;23.148;2023-04-25T11:16:14;92742.91;;;16.85;60.63
10606;BME280;5350;42.698;23.148;2023-04-25T11:18:41;92748.69;;;16.71;59.95
10606;BME280;5350;42.698;23.148;2023-04-25T11:21:08;92747.97;;;16.24;61.12
10606;BME280;5350;42.698;23.148;2023-04-25T11:23:35;92749.88;;;15.92;64.51
10606;BME280;5350;42.698;23.148;2023-04-25T11:26:02;92758.81;;;15.01;67.17
10606;BME280;5350;42.698;23.148;2023-04-25T11:28:29;92758.16;;;14.52;74.94
10606;BME280;5350;42.698;23.148;2023-04-25T11:30:57;92752.66;;;14.21;78.50
10606;BME280;5350;42.698;23.148;2023-04-25T11:33:24;92745.59;;;14.13;85.86
10606;BME280;5350;42.698;23.148;2023-04-25T11:35:53;92742.06;;;14.09;93.50
10606;BME280;5350;42.698;23.148;2023-04-25T11:38:20;92735.59;;;14.30;99.75
10606;BME280;5350;42.698;23.148;2023-04-25T11:40:49;92732.00;;;14.63;92.87
10606;BME280;5350;42.698;23.148;2023-04-25T11:43:17;92726.19;;;14.97;100.00
10606;BME280;5350;42.698;23.148;2023-04-25T11:45:46;92723.25;;;15.30;90.11
10606;BME280;5350;42.698;23.148;2023-04-25T11:48:15;92726.97;;;15.41;81.86
10606;BME280;5350;42.698;23.148;2023-04-25T11:50:42;92728.84;;;15.68;83.04
10606;BME280;5350;42.698;23.148;2023-04-25T11:53:09;92728.13;;;16.02;81.02
10606;BME280;5350;42.698;23.148;2023-04-25T11:55:36;92727.94;;;16.26;74.33
10606;BME280;5350;42.698;23.148;2023-04-25T11:58:04;92730.38;;;16.66;66.25
10606;BME280;5350;42.698;23.148;2023-04-25T12:00:31;92718.88;;;16.97;70.26
10606;BME280;5350;42.698;23.148;2023-04-25T12:02:58;92720.34;;;17.13;62.98
10606;BME280;5350;42.698;23.148;2023-04-25T12:05:28;92723.47;;;17.57;66.38
10606;BME280;5350;42.698;23.148;2023-04-25T12:07:56;92721.53;;;17.54;57.69
10606;BME280;5350;42.698;23.148;2023-04-25T12:10:24;92719.44;;;17.25;59.14
10606;BME280;5350;42.698;23.148;2023-04-25T12:12:51;92729.56;;;17.38;60.24
10606;BME280;5350;42.698;23.148;2023-04-25T12:15:24;92762.09;;;17.51;61.00
10606;BME280;5350;42.698;23.148;2023-04-25T12:17:52;92755.06;;;16.86;61.87
10606;BME280;5350;42.698;23.148;2023-04-25T12:20:20;92762.34;;;16.38;65.80
10606;BME280;5350;42.698;23.148;2023-04-25T12:22:50;92768.84;;;15.35;72.45
10606;BME280;5350;42.698;23.148;2023-04-25T12:25:35;92769.88;;;14.91;82.09
10606;BME280;5350;42.698;23.148;2023-04-25T12:28:14;92765.22;;;14.60;87.66
10606;BME280;5350;42.698;23.148;2023-04-25T12:30:54;92750.03;;;14.45;92.58
10606;BME280;5350;42.698;23.148;2023-04-25T12:33:21;92756.59;;;14.27;94.47
10606;BME280;5350;42.698;23.148;2023-04-25T12:35:48;92754.66;;;14.12;93.93
10606;BME280;5350;42.698;23.148;2023-04-25T12:38:22;92755.75;;;13.99;93.72
10606;BME280;5350;42.698;23.148;2023-04-25T12:40:49;92761.69;;;13.96;98.78
10606;BME280;5350;42.698;23.148;2023-04-25T12:43:15;92768.19;;;13.86;95.36
10606;BME280;5350;42.698;23.148;2023-04-25T12:45:43;92770.78;;;13.62;99.47
10606;BME280;5350;42.698;23.148;2023-04-25T12:48:09;92779.06;;;13.28;100.00
10606;BME280;5350;42.698;23.148;2023-04-25T12:50:36;92785.16;;;12.58;100.00
10606;BME280;5350;42.698;23.148;2023-04-25T12:53:03;92785.19;;;12.29;100.00
10606;BME280;5350;42.698;23.148;2023-04-25T12:55:31;92778.66;;;12.35;100.00
10606;BME280;5350;42.698;23.148;2023-04-25T12:57:58;92782.09;;;12.27;100.00